sensor_id;sensor_type;location;lat;lon;timestamp;temperature;humidity
72936;DHT22;61085;48.804;9.228;2022-12-10T00:01:08;3.10;99.90
72936;DHT22;61085;48.804;9.228;2022-12-10T00:03:35;3.10;99.90
72936;DHT22;61085;48.804;9.228;2022-12-10T00:06:02;3.00;99.90
72936;DHT22;61085;48.804;9.228;2022-12-10T00:08:29;3.00;99.90
72936;DHT22;61085;48.804;9.228;2022-12-10T00:10:55;2.90;99.90
72936;DHT22;61085;48.804;9.228;2022-12-10T00:13:20;3.00;99.90
72936;DHT22;61085;48.804;9.228;2022-12-10T00:15:46;3.00;99.90
72936;DHT22;61085;48.804;9.228;2022-12-10T00:18:12;2.90;99.90
72936;DHT22;61085;48.804;9.228;2022-12-10T00:20:37;2.90;99.90
72936;DHT22;61085;48.804;9.228;2022-12-10T00:23:04;2.90;99.90
72936;DHT22;61085;48.804;9.228;2022-12-10T00:25:31;2.80;99.90
72936;DHT22;61085;48.804;9.228;2022-12-10T00:27:56;2.70;99.90
72936;DHT22;61085;48.804;9.228;2022-12-10T00:30:22;2.70;99.90
72936;DHT22;61085;48.804;9.228;2022-12-10T00:32:47;2.70;99.90
72936;DHT22;61085;48.804;9.228;2022-12-10T00:35:13;2.70;99.90
72936;DHT22;61085;48.804;9.228;2022-12-10T00:37:39;2.70;99.90
72936;DHT22;61085;48.804;9.228;2022-12-10T00:40:05;2.60;99.90
72936;DHT22;61085;48.804;9.228;2022-12-10T00:42:30;2.70;99.90
72936;DHT22;61085;48.804;9.228;2022-12-10T00:44:56;2.70;99.90
72936;DHT22;61085;48.804;9.228;2022-12-10T00:47:22;2.70;99.90
72936;DHT22;61085;48.804;9.228;2022-12-10T00:49:47;2.70;99.90
72936;DHT22;61085;48.804;9.228;2022-12-10T00:52:13;2.60;99.90
72936;DHT22;61085;48.804;9.228;2022-12-10T00:54:38;2.60;99.90
72936;DHT22;61085;48.804;9.228;2022-12-10T00:57:04;2.70;99.90
72936;DHT22;61085;48.804;9.228;2022-12-10T00:59:29;2.80;99.90
72936;DHT22;61085;48.804;9.228;2022-12-10T01:01:55;2.80;99.90
72936;DHT22;61085;48.804;9.228;2022-12-10T01:04:21;2.90;99.90
72936;DHT22;61085;48.804;9.228;2022-12-10T01:06:49;2.90;99.90
72936;DHT22;61085;48.804;9.228;2022-12-10T01:09:18;3.00;99.90
72936;DHT22;61085;48.804;9.228;2022-12-10T01:11:46;2.80;99.90
72936;DHT22;61085;48.804;9.228;2022-12-10T01:14:18;2.70;99.90
72936;DHT22;61085;48.804;9.228;2022-12-10T01:16:44;2.80;99.90
72936;DHT22;61085;48.804;9.228;2022-12-10T01:19:10;2.80;99.90
72936;DHT22;61085;48.804;9.228;2022-12-10T01:21:36;2.90;99.90
72936;DHT22;61085;48.804;9.228;2022-12-10T01:24:03;2.90;99.90
72936;DHT22;61085;48.804;9.228;2022-12-10T01:26:31;2.80;99.90
72936;DHT22;61085;48.804;9.228;2022-12-10T01:28:58;2.80;99.90
72936;DHT22;61085;48.804;9.228;2022-12-10T01:31:32;2.90;99.90
72936;DHT22;61085;48.804;9.228;2022-12-10T01:33:58;2.80;99.90
72936;DHT22;61085;48.804;9.228;2022-12-10T01:36:27;2.90;99.90
72936;DHT22;61085;48.804;9.228;2022-12-10T01:38:53;2.90;99.90
72936;DHT22;61085;48.804;9.228;2022-12-10T01:46:14;2.90;99.90
72936;DHT22;61085;48.804;9.228;2022-12-10T01:48:40;2.90;99.90
72936;DHT22;61085;48.804;9.228;2022-12-10T01:51:06;2.90;99.90
72936;DHT22;61085;48.804;9.228;2022-12-10T01:53:32;2.90;99.90
72936;DHT22;61085;48.804;9.228;2022-12-10T01:55:58;3.00;99.90
72936;DHT22;61085;48.804;9.228;2022-12-10T01:58:23;2.90;99.90
72936;DHT22;61085;48.804;9.228;2022-12-10T02:06:54;2.70;99.90
72936;DHT22;61085;48.804;9.228;2022-12-10T02:12:15;2.70;99.90
72936;DHT22;61085;48.804;9.228;2022-12-10T02:25:24;2.70;99.90
72936;DHT22;61085;48.804;9.228;2022-12-10T02:30:23;2.80;99.90
72936;DHT22;61085;48.804;9.228;2022-12-10T02:32:49;2.80;99.90
72936;DHT22;61085;48.804;9.228;2022-12-10T02:35:20;2.80;99.90
72936;DHT22;61085;48.804;9.228;2022-12-10T02:37:51;2.80;99.90
72936;DHT22;61085;48.804;9.228;2022-12-10T02:40:22;2.80;99.90
72936;DHT22;61085;48.804;9.228;2022-12-10T02:42:50;2.90;99.90
72936;DHT22;61085;48.804;9.228;2022-12-10T02:45:18;2.80;99.90
72936;DHT22;61085;48.804;9.228;2022-12-10T02:47:44;2.70;99.90
72936;DHT22;61085;48.804;9.228;2022-12-10T02:50:11;2.80;99.90
72936;DHT22;61085;48.804;9.228;2022-12-10T02:52:39;2.80;99.90
72936;DHT22;61085;48.804;9.228;2022-12-10T02:55:05;3.00;99.90
72936;DHT22;61085;48.804;9.228;2022-12-10T03:00:18;2.90;99.90
72936;DHT22;61085;48.804;9.228;2022-12-10T03:05:59;2.90;99.90
72936;DHT22;61085;48.804;9.228;2022-12-10T03:08:52;2.80;99.90
72936;DHT22;61085;48.804;9.228;2022-12-10T03:11:22;2.90;99.90
72936;DHT22;61085;48.804;9.228;2022-12-10T03:14:13;2.70;99.90
72936;DHT22;61085;48.804;9.228;2022-12-10T03:16:42;2.80;99.90
72936;DHT22;61085;48.804;9.228;2022-12-10T03:19:15;3.00;99.90
72936;DHT22;61085;48.804;9.228;2022-12-10T03:21:43;2.70;99.90
72936;DHT22;61085;48.804;9.228;2022-12-10T03:24:10;2.70;99.90
72936;DHT22;61085;48.804;9.228;2022-12-10T03:26:40;2.60;99.90
72936;DHT22;61085;48.804;9.228;2022-12-10T03:29:10;2.60;99.90
72936;DHT22;61085;48.804;9.228;2022-12-10T03:31:38;2.60;99.90
72936;DHT22;61085;48.804;9.228;2022-12-10T03:34:05;2.60;99.90
72936;DHT22;61085;48.804;9.228;2022-12-10T03:36:32;2.50;99.90
72936;DHT22;61085;48.804;9.228;2022-12-10T03:38:58;2.50;99.90
72936;DHT22;61085;48.804;9.228;2022-12-10T03:41:25;2.40;99.90
72936;DHT22;61085;48.804;9.228;2022-12-10T03:43:55;2.50;99.90
72936;DHT22;61085;48.804;9.228;2022-12-10T03:46:26;2.40;99.90
72936;DHT22;61085;48.804;9.228;2022-12-10T03:48:56;2.50;99.90
72936;DHT22;61085;48.804;9.228;2022-12-10T03:51:23;2.50;99.90
72936;DHT22;61085;48.804;9.228;2022-12-10T03:53:48;2.50;99.90
72936;DHT22;61085;48.804;9.228;2022-12-10T03:56:15;2.50;99.90
72936;DHT22;61085;48.804;9.228;2022-12-10T03:58:41;2.60;99.90
72936;DHT22;61085;48.804;9.228;2022-12-10T04:01:07;2.70;99.90
72936;DHT22;61085;48.804;9.228;2022-12-10T04:03:40;2.70;99.90
72936;DHT22;61085;48.804;9.228;2022-12-10T04:06:08;2.70;99.90
72936;DHT22;61085;48.804;9.228;2022-12-10T04:08:34;2.70;99.90
72936;DHT22;61085;48.804;9.228;2022-12-10T04:11:07;2.70;99.90
72936;DHT22;61085;48.804;9.228;2022-12-10T04:13:34;2.70;99.90
72936;DHT22;61085;48.804;9.228;2022-12-10T04:16:19;2.80;99.90
72936;DHT22;61085;48.804;9.228;2022-12-10T04:19:21;2.80;99.90
72936;DHT22;61085;48.804;9.228;2022-12-10T04:21:47;2.80;99.90
72936;DHT22;61085;48.804;9.228;2022-12-10T04:24:33;2.80;99.90
72936;DHT22;61085;48.804;9.228;2022-12-10T04:29:43;2.80;99.90
72936;DHT22;61085;48.804;9.228;2022-12-10T04:32:09;2.80;99.90
72936;DHT22;61085;48.804;9.228;2022-12-10T04:34:34;2.80;99.90
72936;DHT22;61085;48.804;9.228;2022-12-10T04:37:01;2.80;99.90
72936;DHT22;61085;48.804;9.228;2022-12-10T04:39:31;2.80;99.90
72936;DHT22;61085;48.804;9.228;2022-12-10T04:41:57;2.80;99.90
72936;DHT22;61085;48.804;9.228;2022-12-10T04:44:23;2.80;99.90
72936;DHT22;61085;48.804;9.228;2022-12-10T04:46:49;2.80;99.90
72936;DHT22;61085;48.804;9.228;2022-12-10T04:49:15;2.80;99.90
72936;DHT22;61085;48.804;9.228;2022-12-10T04:51:41;2.90;99.90
72936;DHT22;61085;48.804;9.228;2022-12-10T04:54:06;2.90;99.90
72936;DHT22;61085;48.804;9.228;2022-12-10T04:56:32;2.90;99.90
72936;DHT22;61085;48.804;9.228;2022-12-10T04:58:58;2.90;99.90
72936;DHT22;61085;48.804;9.228;2022-12-10T05:01:25;2.90;99.90
72936;DHT22;61085;48.804;9.228;2022-12-10T05:03:51;2.90;99.90
72936;DHT22;61085;48.804;9.228;2022-12-10T05:06:17;2.90;99.90
72936;DHT22;61085;48.804;9.228;2022-12-10T05:08:43;2.80;99.90
72936;DHT22;61085;48.804;9.228;2022-12-10T05:11:14;2.90;99.90
72936;DHT22;61085;48.804;9.228;2022-12-10T05:13:41;2.90;99.90
72936;DHT22;61085;48.804;9.228;2022-12-10T05:16:09;2.70;99.90
72936;DHT22;61085;48.804;9.228;2022-12-10T05:18:36;2.80;99.90
72936;DHT22;61085;48.804;9.228;2022-12-10T05:21:07;2.80;99.90
72936;DHT22;61085;48.804;9.228;2022-12-10T05:23:39;2.70;99.90
72936;DHT22;61085;48.804;9.228;2022-12-10T05:26:16;2.70;99.90
72936;DHT22;61085;48.804;9.228;2022-12-10T05:28:51;2.60;99.90
72936;DHT22;61085;48.804;9.228;2022-12-10T05:31:30;2.50;99.90
72936;DHT22;61085;48.804;9.228;2022-12-10T05:33:57;2.60;99.90
72936;DHT22;61085;48.804;9.228;2022-12-10T05:36:26;2.50;99.90
72936;DHT22;61085;48.804;9.228;2022-12-10T05:38:53;2.50;99.90
72936;DHT22;61085;48.804;9.228;2022-12-10T05:41:21;2.60;99.90
72936;DHT22;61085;48.804;9.228;2022-12-10T05:43:47;2.60;99.90
72936;DHT22;61085;48.804;9.228;2022-12-10T05:46:15;2.90;99.90
72936;DHT22;61085;48.804;9.228;2022-12-10T05:48:41;2.80;99.90
72936;DHT22;61085;48.804;9.228;2022-12-10T05:51:11;2.70;99.90
72936;DHT22;61085;48.804;9.228;2022-12-10T05:53:37;2.60;99.90
72936;DHT22;61085;48.804;9.228;2022-12-10T05:56:06;2.70;99.90
72936;DHT22;61085;48.804;9.228;2022-12-10T05:58:32;2.70;99.90
72936;DHT22;61085;48.804;9.228;2022-12-10T06:00:59;2.50;99.90
72936;DHT22;61085;48.804;9.228;2022-12-10T06:03:26;2.60;99.90
72936;DHT22;61085;48.804;9.228;2022-12-10T06:05:52;2.50;99.90
72936;DHT22;61085;48.804;9.228;2022-12-10T06:08:18;2.50;99.90
72936;DHT22;61085;48.804;9.228;2022-12-10T06:10:44;2.50;99.90
72936;DHT22;61085;48.804;9.228;2022-12-10T06:13:09;2.50;99.90
72936;DHT22;61085;48.804;9.228;2022-12-10T06:15:38;2.50;99.90
72936;DHT22;61085;48.804;9.228;2022-12-10T06:18:04;2.50;99.90
72936;DHT22;61085;48.804;9.228;2022-12-10T06:20:30;2.70;99.90
72936;DHT22;61085;48.804;9.228;2022-12-10T06:22:56;2.60;99.90
72936;DHT22;61085;48.804;9.228;2022-12-10T06:25:21;2.70;99.90
72936;DHT22;61085;48.804;9.228;2022-12-10T06:27:47;2.40;99.90
72936;DHT22;61085;48.804;9.228;2022-12-10T06:30:13;2.40;99.90
72936;DHT22;61085;48.804;9.228;2022-12-10T06:32:38;2.40;99.90
72936;DHT22;61085;48.804;9.228;2022-12-10T06:35:05;2.40;99.90
72936;DHT22;61085;48.804;9.228;2022-12-10T06:37:30;2.40;99.90
72936;DHT22;61085;48.804;9.228;2022-12-10T06:39:56;2.30;99.90
72936;DHT22;61085;48.804;9.228;2022-12-10T06:42:22;2.30;99.90
72936;DHT22;61085;48.804;9.228;2022-12-10T06:44:47;2.20;99.90
72936;DHT22;61085;48.804;9.228;2022-12-10T06:47:13;2.20;99.90
72936;DHT22;61085;48.804;9.228;2022-12-10T06:49:40;2.30;99.90
72936;DHT22;61085;48.804;9.228;2022-12-10T06:52:06;2.30;99.90
72936;DHT22;61085;48.804;9.228;2022-12-10T06:54:32;2.40;99.90
72936;DHT22;61085;48.804;9.228;2022-12-10T06:56:57;2.40;99.90
72936;DHT22;61085;48.804;9.228;2022-12-10T06:59:23;2.40;99.90
72936;DHT22;61085;48.804;9.228;2022-12-10T07:01:49;2.50;99.90
72936;DHT22;61085;48.804;9.228;2022-12-10T07:04:15;2.50;99.90
72936;DHT22;61085;48.804;9.228;2022-12-10T07:06:41;2.50;99.90
72936;DHT22;61085;48.804;9.228;2022-12-10T07:09:07;2.50;99.90
72936;DHT22;61085;48.804;9.228;2022-12-10T07:11:33;2.50;99.90
72936;DHT22;61085;48.804;9.228;2022-12-10T07:13:59;2.50;99.90
72936;DHT22;61085;48.804;9.228;2022-12-10T07:16:27;2.50;99.90
72936;DHT22;61085;48.804;9.228;2022-12-10T07:18:55;2.40;99.90
72936;DHT22;61085;48.804;9.228;2022-12-10T07:21:30;2.50;99.90
72936;DHT22;61085;48.804;9.228;2022-12-10T07:23:57;2.50;99.90
72936;DHT22;61085;48.804;9.228;2022-12-10T07:26:31;2.60;99.90
72936;DHT22;61085;48.804;9.228;2022-12-10T07:28:58;2.50;99.90
72936;DHT22;61085;48.804;9.228;2022-12-10T07:31:24;2.60;99.90
72936;DHT22;61085;48.804;9.228;2022-12-10T07:33:54;2.50;99.90
72936;DHT22;61085;48.804;9.228;2022-12-10T07:36:21;2.60;99.90
72936;DHT22;61085;48.804;9.228;2022-12-10T07:38:48;2.60;99.90
72936;DHT22;61085;48.804;9.228;2022-12-10T07:41:14;2.70;99.90
72936;DHT22;61085;48.804;9.228;2022-12-10T07:43:41;2.70;99.90
72936;DHT22;61085;48.804;9.228;2022-12-10T07:46:10;2.70;99.90
72936;DHT22;61085;48.804;9.228;2022-12-10T07:48:38;2.70;99.90
72936;DHT22;61085;48.804;9.228;2022-12-10T07:51:07;2.80;99.90
72936;DHT22;61085;48.804;9.228;2022-12-10T07:53:34;2.80;99.90
72936;DHT22;61085;48.804;9.228;2022-12-10T07:56:00;2.90;99.90
72936;DHT22;61085;48.804;9.228;2022-12-10T07:58:26;3.00;99.90
72936;DHT22;61085;48.804;9.228;2022-12-10T08:00:52;3.10;99.90
72936;DHT22;61085;48.804;9.228;2022-12-10T08:03:17;3.00;99.90
72936;DHT22;61085;48.804;9.228;2022-12-10T08:05:43;3.00;99.90
72936;DHT22;61085;48.804;9.228;2022-12-10T08:08:09;2.80;99.90
72936;DHT22;61085;48.804;9.228;2022-12-10T08:10:38;2.90;99.90
72936;DHT22;61085;48.804;9.228;2022-12-10T08:13:05;2.90;99.90
72936;DHT22;61085;48.804;9.228;2022-12-10T08:15:31;2.90;99.90
72936;DHT22;61085;48.804;9.228;2022-12-10T08:17:57;2.80;99.90
72936;DHT22;61085;48.804;9.228;2022-12-10T08:20:24;2.80;99.90
72936;DHT22;61085;48.804;9.228;2022-12-10T08:22:50;2.80;99.90
72936;DHT22;61085;48.804;9.228;2022-12-10T08:25:16;2.70;99.90
72936;DHT22;61085;48.804;9.228;2022-12-10T08:27:42;2.70;99.90
72936;DHT22;61085;48.804;9.228;2022-12-10T08:30:08;2.70;99.90
72936;DHT22;61085;48.804;9.228;2022-12-10T08:32:34;2.80;99.90
72936;DHT22;61085;48.804;9.228;2022-12-10T08:35:00;2.90;99.90
72936;DHT22;61085;48.804;9.228;2022-12-10T08:37:25;3.10;99.90
72936;DHT22;61085;48.804;9.228;2022-12-10T08:39:51;2.80;99.90
72936;DHT22;61085;48.804;9.228;2022-12-10T08:42:17;3.00;99.90
72936;DHT22;61085;48.804;9.228;2022-12-10T08:44:43;3.00;99.90
72936;DHT22;61085;48.804;9.228;2022-12-10T08:47:08;3.00;99.90
72936;DHT22;61085;48.804;9.228;2022-12-10T08:49:34;2.80;99.90
72936;DHT22;61085;48.804;9.228;2022-12-10T08:52:00;3.00;99.90
72936;DHT22;61085;48.804;9.228;2022-12-10T08:54:25;3.20;99.90
72936;DHT22;61085;48.804;9.228;2022-12-10T08:56:51;3.30;99.90
72936;DHT22;61085;48.804;9.228;2022-12-10T08:59:17;3.40;99.90
72936;DHT22;61085;48.804;9.228;2022-12-10T09:01:42;3.30;99.90
72936;DHT22;61085;48.804;9.228;2022-12-10T09:04:08;3.40;99.90
72936;DHT22;61085;48.804;9.228;2022-12-10T09:06:34;3.40;99.90
72936;DHT22;61085;48.804;9.228;2022-12-10T09:09:00;3.40;99.90
72936;DHT22;61085;48.804;9.228;2022-12-10T09:11:28;3.40;99.90
72936;DHT22;61085;48.804;9.228;2022-12-10T09:13:55;3.40;99.90
72936;DHT22;61085;48.804;9.228;2022-12-10T09:16:20;3.50;99.90
72936;DHT22;61085;48.804;9.228;2022-12-10T09:18:46;3.50;99.90
72936;DHT22;61085;48.804;9.228;2022-12-10T09:21:14;3.60;99.90
72936;DHT22;61085;48.804;9.228;2022-12-10T09:23:41;3.30;99.90
72936;DHT22;61085;48.804;9.228;2022-12-10T09:26:08;3.10;99.90
72936;DHT22;61085;48.804;9.228;2022-12-10T09:28:34;3.00;99.90
72936;DHT22;61085;48.804;9.228;2022-12-10T09:31:01;3.00;99.90
72936;DHT22;61085;48.804;9.228;2022-12-10T09:33:28;2.90;99.90
72936;DHT22;61085;48.804;9.228;2022-12-10T09:35:53;3.10;99.90
72936;DHT22;61085;48.804;9.228;2022-12-10T09:38:19;3.20;99.90
72936;DHT22;61085;48.804;9.228;2022-12-10T09:43:16;3.30;99.90
72936;DHT22;61085;48.804;9.228;2022-12-10T09:45:58;3.50;99.90
72936;DHT22;61085;48.804;9.228;2022-12-10T09:49:16;3.50;99.90
72936;DHT22;61085;48.804;9.228;2022-12-10T09:51:28;3.20;99.90
72936;DHT22;61085;48.804;9.228;2022-12-10T09:53:56;3.10;99.90
72936;DHT22;61085;48.804;9.228;2022-12-10T09:56:37;3.20;99.90
72936;DHT22;61085;48.804;9.228;2022-12-10T09:59:19;3.20;99.90
72936;DHT22;61085;48.804;9.228;2022-12-10T10:01:48;3.30;99.90
72936;DHT22;61085;48.804;9.228;2022-12-10T10:04:14;3.20;99.90
72936;DHT22;61085;48.804;9.228;2022-12-10T10:06:41;3.10;99.90
72936;DHT22;61085;48.804;9.228;2022-12-10T10:09:09;3.10;99.90
72936;DHT22;61085;48.804;9.228;2022-12-10T10:11:37;3.20;99.90
72936;DHT22;61085;48.804;9.228;2022-12-10T10:14:12;3.40;99.90
72936;DHT22;61085;48.804;9.228;2022-12-10T10:16:46;3.50;99.90
72936;DHT22;61085;48.804;9.228;2022-12-10T10:19:25;3.60;99.90
72936;DHT22;61085;48.804;9.228;2022-12-10T10:21:51;3.60;99.90
72936;DHT22;61085;48.804;9.228;2022-12-10T10:24:33;3.60;99.90
72936;DHT22;61085;48.804;9.228;2022-12-10T10:27:17;3.70;99.90
72936;DHT22;61085;48.804;9.228;2022-12-10T10:29:46;3.80;99.90
72936;DHT22;61085;48.804;9.228;2022-12-10T10:32:18;3.80;99.90
72936;DHT22;61085;48.804;9.228;2022-12-10T10:34:46;3.80;99.90
72936;DHT22;61085;48.804;9.228;2022-12-10T10:37:29;3.90;99.90
72936;DHT22;61085;48.804;9.228;2022-12-10T10:39:57;3.90;99.90
72936;DHT22;61085;48.804;9.228;2022-12-10T10:42:43;3.80;99.90
72936;DHT22;61085;48.804;9.228;2022-12-10T10:45:34;3.70;99.90
72936;DHT22;61085;48.804;9.228;2022-12-10T10:48:16;3.50;99.90
72936;DHT22;61085;48.804;9.228;2022-12-10T10:50:52;3.30;99.90
72936;DHT22;61085;48.804;9.228;2022-12-10T10:53:32;3.20;99.90
72936;DHT22;61085;48.804;9.228;2022-12-10T10:59:05;3.50;99.90
72936;DHT22;61085;48.804;9.228;2022-12-10T11:01:54;3.70;99.90
72936;DHT22;61085;48.804;9.228;2022-12-10T11:04:28;3.70;99.90
72936;DHT22;61085;48.804;9.228;2022-12-10T11:06:56;3.90;99.90
72936;DHT22;61085;48.804;9.228;2022-12-10T11:09:32;3.90;99.90
72936;DHT22;61085;48.804;9.228;2022-12-10T11:12:04;3.90;99.90
72936;DHT22;61085;48.804;9.228;2022-12-10T11:14:33;4.00;99.90
72936;DHT22;61085;48.804;9.228;2022-12-10T11:17:24;4.00;99.90
72936;DHT22;61085;48.804;9.228;2022-12-10T11:20:01;4.10;99.90
72936;DHT22;61085;48.804;9.228;2022-12-10T11:22:30;4.10;99.90
72936;DHT22;61085;48.804;9.228;2022-12-10T11:24:57;4.30;99.90
72936;DHT22;61085;48.804;9.228;2022-12-10T11:30:20;4.10;99.90
72936;DHT22;61085;48.804;9.228;2022-12-10T11:44:35;4.40;99.90
72936;DHT22;61085;48.804;9.228;2022-12-10T11:54:51;4.50;99.90
72936;DHT22;61085;48.804;9.228;2022-12-10T11:57:23;4.30;99.10
72936;DHT22;61085;48.804;9.228;2022-12-10T12:14:01;4.40;99.90
72936;DHT22;61085;48.804;9.228;2022-12-10T12:16:42;4.40;99.90
72936;DHT22;61085;48.804;9.228;2022-12-10T12:19:24;4.30;99.70
72936;DHT22;61085;48.804;9.228;2022-12-10T12:21:51;4.10;99.20
72936;DHT22;61085;48.804;9.228;2022-12-10T12:24:28;4.20;99.00
72936;DHT22;61085;48.804;9.228;2022-12-10T12:27:09;3.90;99.00
72936;DHT22;61085;48.804;9.228;2022-12-10T12:29:45;3.80;99.90
72936;DHT22;61085;48.804;9.228;2022-12-10T12:32:29;3.90;98.00
72936;DHT22;61085;48.804;9.228;2022-12-10T12:35:12;4.00;98.20
72936;DHT22;61085;48.804;9.228;2022-12-10T12:37:56;3.90;97.80
72936;DHT22;61085;48.804;9.228;2022-12-10T12:40:40;3.70;98.60
72936;DHT22;61085;48.804;9.228;2022-12-10T12:43:13;3.60;99.00
72936;DHT22;61085;48.804;9.228;2022-12-10T12:45:42;3.40;99.40
72936;DHT22;61085;48.804;9.228;2022-12-10T12:51:17;3.70;99.70
72936;DHT22;61085;48.804;9.228;2022-12-10T12:53:44;3.60;98.80
72936;DHT22;61085;48.804;9.228;2022-12-10T12:56:42;3.60;99.90
72936;DHT22;61085;48.804;9.228;2022-12-10T13:02:42;3.80;98.20
72936;DHT22;61085;48.804;9.228;2022-12-10T13:05:28;4.20;98.80
72936;DHT22;61085;48.804;9.228;2022-12-10T13:13:40;3.60;97.70
72936;DHT22;61085;48.804;9.228;2022-12-10T13:27:35;3.60;98.90
72936;DHT22;61085;48.804;9.228;2022-12-10T13:30:18;3.80;99.50
72936;DHT22;61085;48.804;9.228;2022-12-10T13:32:54;3.90;99.00
72936;DHT22;61085;48.804;9.228;2022-12-10T13:35:31;3.90;99.00
72936;DHT22;61085;48.804;9.228;2022-12-10T13:38:04;3.90;98.90
72936;DHT22;61085;48.804;9.228;2022-12-10T13:43:35;3.90;98.60
72936;DHT22;61085;48.804;9.228;2022-12-10T13:48:53;3.60;99.30
72936;DHT22;61085;48.804;9.228;2022-12-10T13:54:12;3.50;98.90
72936;DHT22;61085;48.804;9.228;2022-12-10T13:56:55;3.70;99.90
72936;DHT22;61085;48.804;9.228;2022-12-10T13:59:39;3.80;99.90
72936;DHT22;61085;48.804;9.228;2022-12-10T14:07:29;3.80;99.90
72936;DHT22;61085;48.804;9.228;2022-12-10T14:09:57;3.90;99.90
72936;DHT22;61085;48.804;9.228;2022-12-10T14:12:33;3.90;99.90
72936;DHT22;61085;48.804;9.228;2022-12-10T14:15:06;3.90;99.90
72936;DHT22;61085;48.804;9.228;2022-12-10T14:17:43;3.80;99.90
72936;DHT22;61085;48.804;9.228;2022-12-10T14:20:16;3.70;99.90
72936;DHT22;61085;48.804;9.228;2022-12-10T14:22:51;3.70;99.90
72936;DHT22;61085;48.804;9.228;2022-12-10T14:25:21;3.80;99.90
72936;DHT22;61085;48.804;9.228;2022-12-10T14:27:49;3.70;99.90
72936;DHT22;61085;48.804;9.228;2022-12-10T14:30:19;3.80;99.90
72936;DHT22;61085;48.804;9.228;2022-12-10T14:32:46;3.70;99.90
72936;DHT22;61085;48.804;9.228;2022-12-10T14:35:21;3.80;99.90
72936;DHT22;61085;48.804;9.228;2022-12-10T14:37:48;3.80;99.90
72936;DHT22;61085;48.804;9.228;2022-12-10T14:40:23;3.70;99.90
72936;DHT22;61085;48.804;9.228;2022-12-10T14:42:52;3.70;99.90
72936;DHT22;61085;48.804;9.228;2022-12-10T14:45:19;3.60;99.90
72936;DHT22;61085;48.804;9.228;2022-12-10T14:47:47;3.60;99.90
72936;DHT22;61085;48.804;9.228;2022-12-10T14:50:16;3.60;99.90
72936;DHT22;61085;48.804;9.228;2022-12-10T14:52:44;3.50;99.90
72936;DHT22;61085;48.804;9.228;2022-12-10T14:55:20;3.40;99.90
72936;DHT22;61085;48.804;9.228;2022-12-10T14:57:55;3.40;99.90
72936;DHT22;61085;48.804;9.228;2022-12-10T15:00:23;3.40;99.90
72936;DHT22;61085;48.804;9.228;2022-12-10T15:02:54;3.30;99.90
72936;DHT22;61085;48.804;9.228;2022-12-10T15:05:27;3.30;99.90
72936;DHT22;61085;48.804;9.228;2022-12-10T15:07:55;3.30;99.90
72936;DHT22;61085;48.804;9.228;2022-12-10T15:10:27;3.20;99.90
72936;DHT22;61085;48.804;9.228;2022-12-10T15:12:54;3.30;99.90
72936;DHT22;61085;48.804;9.228;2022-12-10T15:15:31;3.30;99.90
72936;DHT22;61085;48.804;9.228;2022-12-10T15:20:51;3.40;99.90
72936;DHT22;61085;48.804;9.228;2022-12-10T15:28:40;3.30;99.90
72936;DHT22;61085;48.804;9.228;2022-12-10T15:33:49;3.20;99.90
72936;DHT22;61085;48.804;9.228;2022-12-10T15:36:29;3.30;99.90
72936;DHT22;61085;48.804;9.228;2022-12-10T15:38:57;3.30;99.90
72936;DHT22;61085;48.804;9.228;2022-12-10T15:41:24;3.20;99.90
72936;DHT22;61085;48.804;9.228;2022-12-10T15:44:00;3.20;99.90
72936;DHT22;61085;48.804;9.228;2022-12-10T15:46:26;3.00;99.90
72936;DHT22;61085;48.804;9.228;2022-12-10T15:48:52;3.10;99.90
72936;DHT22;61085;48.804;9.228;2022-12-10T15:51:17;2.90;99.90
72936;DHT22;61085;48.804;9.228;2022-12-10T15:53:43;3.00;99.90
72936;DHT22;61085;48.804;9.228;2022-12-10T15:56:09;3.00;99.90
72936;DHT22;61085;48.804;9.228;2022-12-10T15:58:35;3.00;99.90
72936;DHT22;61085;48.804;9.228;2022-12-10T16:01:01;3.00;99.90
72936;DHT22;61085;48.804;9.228;2022-12-10T16:03:28;3.00;99.90
72936;DHT22;61085;48.804;9.228;2022-12-10T16:05:54;3.00;99.90
72936;DHT22;61085;48.804;9.228;2022-12-10T16:08:27;3.00;99.90
72936;DHT22;61085;48.804;9.228;2022-12-10T16:10:57;3.10;99.90
72936;DHT22;61085;48.804;9.228;2022-12-10T16:13:30;3.10;99.90
72936;DHT22;61085;48.804;9.228;2022-12-10T16:16:00;3.10;99.90
72936;DHT22;61085;48.804;9.228;2022-12-10T16:18:26;3.00;99.90
72936;DHT22;61085;48.804;9.228;2022-12-10T16:20:52;3.10;99.90
72936;DHT22;61085;48.804;9.228;2022-12-10T16:23:18;3.00;99.90
72936;DHT22;61085;48.804;9.228;2022-12-10T16:25:44;3.00;99.90
72936;DHT22;61085;48.804;9.228;2022-12-10T16:28:16;3.00;99.90
72936;DHT22;61085;48.804;9.228;2022-12-10T16:30:45;3.00;99.90
72936;DHT22;61085;48.804;9.228;2022-12-10T16:33:13;3.00;99.90
72936;DHT22;61085;48.804;9.228;2022-12-10T16:35:39;3.00;99.90
72936;DHT22;61085;48.804;9.228;2022-12-10T16:38:05;2.90;99.90
72936;DHT22;61085;48.804;9.228;2022-12-10T16:40:31;2.90;99.90
72936;DHT22;61085;48.804;9.228;2022-12-10T16:42:57;2.90;99.90
72936;DHT22;61085;48.804;9.228;2022-12-10T16:45:34;2.90;99.90
72936;DHT22;61085;48.804;9.228;2022-12-10T16:48:00;2.90;99.90
72936;DHT22;61085;48.804;9.228;2022-12-10T16:50:26;2.90;99.90
72936;DHT22;61085;48.804;9.228;2022-12-10T16:52:52;2.90;99.90
72936;DHT22;61085;48.804;9.228;2022-12-10T16:55:21;2.90;99.90
72936;DHT22;61085;48.804;9.228;2022-12-10T16:57:48;3.00;99.90
72936;DHT22;61085;48.804;9.228;2022-12-10T17:00:16;2.90;99.90
72936;DHT22;61085;48.804;9.228;2022-12-10T17:02:43;2.90;99.90
72936;DHT22;61085;48.804;9.228;2022-12-10T17:05:39;2.90;99.90
72936;DHT22;61085;48.804;9.228;2022-12-10T17:08:05;2.90;99.90
72936;DHT22;61085;48.804;9.228;2022-12-10T17:10:30;2.90;99.90
72936;DHT22;61085;48.804;9.228;2022-12-10T17:13:15;2.90;99.90
72936;DHT22;61085;48.804;9.228;2022-12-10T17:15:43;2.90;99.90
72936;DHT22;61085;48.804;9.228;2022-12-10T17:18:13;2.90;99.90
72936;DHT22;61085;48.804;9.228;2022-12-10T17:20:39;2.90;99.90
72936;DHT22;61085;48.804;9.228;2022-12-10T17:23:05;3.00;99.90
72936;DHT22;61085;48.804;9.228;2022-12-10T17:25:31;3.00;99.90
72936;DHT22;61085;48.804;9.228;2022-12-10T17:27:57;3.00;99.90
72936;DHT22;61085;48.804;9.228;2022-12-10T17:30:23;2.90;99.90
72936;DHT22;61085;48.804;9.228;2022-12-10T17:32:49;2.80;99.90
72936;DHT22;61085;48.804;9.228;2022-12-10T17:35:15;2.90;99.90
72936;DHT22;61085;48.804;9.228;2022-12-10T17:37:41;2.90;99.90
72936;DHT22;61085;48.804;9.228;2022-12-10T17:40:17;2.90;99.90
72936;DHT22;61085;48.804;9.228;2022-12-10T17:42:44;2.90;99.90
72936;DHT22;61085;48.804;9.228;2022-12-10T17:45:13;2.90;99.90
72936;DHT22;61085;48.804;9.228;2022-12-10T17:47:39;2.80;99.90
72936;DHT22;61085;48.804;9.228;2022-12-10T17:50:17;2.80;99.90
72936;DHT22;61085;48.804;9.228;2022-12-10T17:52:45;2.80;99.90
72936;DHT22;61085;48.804;9.228;2022-12-10T17:55:10;2.90;99.90
72936;DHT22;61085;48.804;9.228;2022-12-10T17:57:36;2.90;99.90
72936;DHT22;61085;48.804;9.228;2022-12-10T18:00:09;2.90;99.90
72936;DHT22;61085;48.804;9.228;2022-12-10T18:02:35;2.90;99.90
72936;DHT22;61085;48.804;9.228;2022-12-10T18:05:00;2.70;99.90